Time;durP1;ratioP1;P1;durP2;ratioP2;P2;SDS_P1;SDS_P2;PMS_P1;PMS_P2;Temp;Humidity;BMP_temperature;BMP_pressure;BME280_temperature;BME280_humidity;BME280_pressure;Samples;Min_cycle;Max_cycle;Signal;HPM_P1;HPM_P2
2023/05/01 00:01:27;;;;;;;8.18;4.80;;;8.00;99.90;;;;;;4985874;28;20037;-91
2023/05/01 00:03:53;;;;;;;7.20;4.90;;;8.00;99.90;;;;;;4998394;28;20054;-91
2023/05/01 00:06:21;;;;;;;8.30;4.90;;;7.90;99.90;;;;;;4984802;28;20813;-91
2023/05/01 00:08:47;;;;;;;6.68;4.78;;;7.90;99.90;;;;;;4985554;28;20289;-91
2023/05/01 00:11:13;;;;;;;12.02;4.70;;;7.90;99.90;;;;;;4997842;28;20038;-92
2023/05/01 00:13:41;;;;;;;8.43;4.70;;;7.90;99.90;;;;;;4980962;28;20502;-93
2023/05/01 00:16:11;;;;;;;6.25;4.68;;;7.90;99.90;;;;;;4982377;28;20099;-92
2023/05/01 00:18:37;;;;;;;8.55;5.22;;;7.80;99.90;;;;;;4986064;28;20046;-92
2023/05/01 00:21:03;;;;;;;8.15;4.70;;;7.80;99.90;;;;;;4998210;28;20289;-92
2023/05/01 00:23:29;;;;;;;9.27;4.50;;;7.80;99.90;;;;;;5001283;28;20551;-92
2023/05/01 00:25:55;;;;;;;7.70;5.05;;;7.70;99.90;;;;;;5003213;28;20038;-91
2023/05/01 00:28:20;;;;;;;8.68;5.18;;;7.70;99.90;;;;;;4982836;28;20498;-92
2023/05/01 00:30:46;;;;;;;7.43;4.82;;;7.70;99.90;;;;;;4981071;28;20129;-92
2023/05/01 00:33:12;;;;;;;8.25;4.28;;;7.70;99.90;;;;;;4984459;28;20168;-91
2023/05/01 00:35:38;;;;;;;6.93;5.13;;;7.60;99.90;;;;;;4982959;28;20125;-91
2023/05/01 00:38:04;;;;;;;9.75;4.80;;;7.60;99.90;;;;;;4998566;28;20212;-91
2023/05/01 00:40:30;;;;;;;8.85;4.57;;;7.60;99.90;;;;;;4982547;28;20068;-91
2023/05/01 00:42:55;;;;;;;8.45;4.68;;;7.50;99.90;;;;;;4983180;28;20133;-92
2023/05/01 00:45:21;;;;;;;6.35;4.75;;;7.50;99.90;;;;;;4978679;28;20045;-91
2023/05/01 00:47:47;;;;;;;8.70;5.00;;;7.50;99.90;;;;;;4983823;28;20046;-91
2023/05/01 00:50:13;;;;;;;8.48;4.75;;;7.40;99.90;;;;;;4981883;28;20726;-91
2023/05/01 00:52:39;;;;;;;10.30;5.07;;;7.50;99.90;;;;;;4983277;28;20038;-91
2023/05/01 00:55:06;;;;;;;15.43;5.60;;;7.40;99.90;;;;;;4985091;28;20045;-92
2023/05/01 00:57:35;;;;;;;12.68;5.18;;;7.40;99.90;;;;;;4999148;28;20050;-92
2023/05/01 01:00:00;;;;;;;10.18;5.22;;;7.40;99.90;;;;;;4997851;28;20049;-92
2023/05/01 01:02:26;;;;;;;7.72;4.95;;;7.40;99.90;;;;;;4986363;28;20037;-91
2023/05/01 01:04:52;;;;;;;8.50;5.20;;;7.40;99.90;;;;;;5002764;28;20161;-91
2023/05/01 01:07:27;;;;;;;8.15;4.95;;;7.30;99.90;;;;;;4999763;28;20099;-92
2023/05/01 01:10:26;;;;;;;6.93;4.80;;;7.30;99.90;;;;;;4985037;28;20047;-92
2023/05/01 01:13:10;;;;;;;8.85;5.10;;;7.30;99.90;;;;;;4984914;28;20073;-92
2023/05/01 01:15:58;;;;;;;9.40;5.03;;;7.20;99.90;;;;;;4988175;28;20069;-91
2023/05/01 01:18:32;;;;;;;9.15;5.40;;;7.20;99.90;;;;;;5002415;28;20077;-91
2023/05/01 01:21:14;;;;;;;8.07;4.83;;;7.10;99.90;;;;;;4997128;28;20049;-91
2023/05/01 01:24:22;;;;;;;9.13;5.32;;;7.10;99.90;;;;;;5008560;28;20417;-89
2023/05/01 01:27:10;;;;;;;7.93;4.75;;;7.10;99.90;;;;;;4977703;28;20053;-92
2023/05/01 01:29:51;;;;;;;8.60;4.93;;;7.00;99.90;;;;;;5001877;28;20482;-91
2023/05/01 01:32:49;;;;;;;11.95;5.55;;;7.00;99.90;;;;;;5005119;28;20142;-91
2023/05/01 01:35:19;;;;;;;8.55;5.20;;;6.90;99.90;;;;;;4985917;28;20034;-91
2023/05/01 01:38:01;;;;;;;11.52;5.20;;;6.90;99.90;;;;;;4985221;28;20485;-92
2023/05/01 01:40:38;;;;;;;9.65;5.68;;;6.90;99.90;;;;;;4984784;28;20059;-92
2023/05/01 01:43:12;;;;;;;9.52;5.47;;;6.90;99.90;;;;;;4985714;28;20053;-91
2023/05/01 01:45:48;;;;;;;8.18;5.35;;;6.90;99.90;;;;;;4988951;28;20045;-91
2023/05/01 01:48:17;;;;;;;6.80;4.43;;;6.80;99.90;;;;;;5005751;28;20104;-91
2023/05/01 01:50:45;;;;;;;6.88;4.95;;;6.80;99.90;;;;;;4987444;28;20472;-90
2023/05/01 01:53:14;;;;;;;9.68;5.57;;;6.80;99.90;;;;;;4998258;28;20034;-92
2023/05/01 01:55:43;;;;;;;8.45;4.93;;;6.80;99.90;;;;;;4983372;28;20038;-91
2023/05/01 01:58:10;;;;;;;10.00;5.20;;;6.80;99.90;;;;;;4998498;28;20034;-91
2023/05/01 02:00:40;;;;;;;8.00;5.50;;;6.80;99.90;;;;;;4984971;28;20050;-91
2023/05/01 02:03:11;;;;;;;9.00;5.57;;;6.80;99.90;;;;;;5002671;28;20526;-91
2023/05/01 02:05:41;;;;;;;9.63;5.75;;;6.80;99.90;;;;;;4983549;28;20041;-91
2023/05/01 02:08:09;;;;;;;10.18;5.63;;;6.80;99.90;;;;;;4979612;28;20046;-91
2023/05/01 02:10:39;;;;;;;9.90;5.63;;;6.80;99.90;;;;;;4996345;28;20143;-91
2023/05/01 02:13:05;;;;;;;9.73;5.85;;;6.80;99.90;;;;;;4987895;28;20494;-90
2023/05/01 02:15:31;;;;;;;8.57;5.60;;;6.70;99.90;;;;;;4986189;28;20034;-91
2023/05/01 02:18:00;;;;;;;10.00;5.70;;;6.70;99.90;;;;;;4987129;28;20472;-92
2023/05/01 02:20:27;;;;;;;9.48;5.93;;;6.70;99.90;;;;;;5000107;28;20061;-91
2023/05/01 02:22:53;;;;;;;9.15;5.38;;;6.60;99.90;;;;;;4985356;28;20061;-91
2023/05/01 02:25:19;;;;;;;9.30;5.05;;;6.60;99.90;;;;;;4980925;28;20052;-92
2023/05/01 02:28:01;;;;;;;8.65;5.30;;;6.60;99.90;;;;;;5001332;28;20052;-90
2023/05/01 02:30:27;;;;;;;10.45;5.78;;;6.60;99.90;;;;;;4984497;28;20073;-91
2023/05/01 02:32:52;;;;;;;11.25;5.80;;;6.50;99.90;;;;;;5001006;28;20117;-91
2023/05/01 02:35:19;;;;;;;10.05;5.70;;;6.50;99.90;;;;;;4998088;28;20497;-92
2023/05/01 02:37:45;;;;;;;10.02;5.60;;;6.50;99.90;;;;;;4988798;28;20046;-91
2023/05/01 02:40:14;;;;;;;10.75;5.82;;;6.40;99.90;;;;;;4998387;28;20045;-92
2023/05/01 02:42:44;;;;;;;9.70;6.13;;;6.40;99.90;;;;;;4985241;28;20282;-91
2023/05/01 02:45:18;;;;;;;9.50;5.70;;;6.30;99.90;;;;;;5000194;28;20105;-91
2023/05/01 02:47:48;;;;;;;10.32;5.95;;;6.30;99.90;;;;;;4997134;28;20426;-92
2023/05/01 02:50:15;;;;;;;9.80;5.90;;;6.30;99.90;;;;;;4994923;28;20042;-92
2023/05/01 02:52:41;;;;;;;12.30;5.88;;;6.20;99.90;;;;;;4981896;28;20025;-91
2023/05/01 02:55:08;;;;;;;10.82;6.03;;;6.20;99.90;;;;;;4996859;28;20463;-91
2023/05/01 02:57:33;;;;;;;8.38;5.40;;;6.10;99.90;;;;;;4980939;28;20058;-91
2023/05/01 02:59:59;;;;;;;8.70;6.03;;;6.10;99.90;;;;;;4983279;28;20057;-90
2023/05/01 03:02:25;;;;;;;7.80;5.40;;;6.10;99.90;;;;;;4981383;28;20137;-92
2023/05/01 03:04:51;;;;;;;11.13;6.13;;;6.10;99.90;;;;;;4981878;28;20073;-91
2023/05/01 03:07:16;;;;;;;9.63;5.57;;;6.00;99.90;;;;;;4998878;28;20123;-92
2023/05/01 03:09:42;;;;;;;13.35;6.20;;;6.00;99.90;;;;;;4981100;28;20060;-90
2023/05/01 03:12:08;;;;;;;10.00;5.72;;;6.00;99.90;;;;;;4999214;28;20449;-91
2023/05/01 03:14:33;;;;;;;9.82;5.78;;;6.00;99.90;;;;;;4986165;28;20132;-92
2023/05/01 03:17:00;;;;;;;10.02;5.63;;;6.00;99.90;;;;;;4982307;28;20129;-92
2023/05/01 03:19:26;;;;;;;10.80;5.78;;;5.90;99.90;;;;;;4984670;28;20100;-91
2023/05/01 03:21:51;;;;;;;9.88;5.68;;;5.90;99.90;;;;;;4984216;28;20042;-91
2023/05/01 03:24:17;;;;;;;9.77;5.60;;;5.90;99.90;;;;;;4983983;28;20132;-91
2023/05/01 03:26:43;;;;;;;12.65;5.95;;;5.80;99.90;;;;;;4998406;28;20629;-91
2023/05/01 03:29:12;;;;;;;9.32;5.93;;;5.80;99.90;;;;;;4995428;28;20042;-90
2023/05/01 03:31:37;;;;;;;11.20;6.93;;;5.80;99.90;;;;;;4981277;28;20125;-91
2023/05/01 03:34:03;;;;;;;11.43;6.15;;;5.80;99.90;;;;;;4997484;28;20195;-91
2023/05/01 03:36:29;;;;;;;13.25;6.30;;;5.80;99.90;;;;;;4996093;28;20030;-91
2023/05/01 03:38:55;;;;;;;9.63;6.72;;;5.70;99.90;;;;;;4981821;28;20096;-92
2023/05/01 03:41:20;;;;;;;9.68;6.45;;;5.70;99.90;;;;;;4982452;28;20183;-92
2023/05/01 03:43:46;;;;;;;11.15;6.85;;;5.70;99.90;;;;;;4996193;28;20043;-91
2023/05/01 03:46:12;;;;;;;12.02;6.43;;;5.80;99.90;;;;;;4983651;28;20532;-91
2023/05/01 03:48:37;;;;;;;13.80;6.72;;;5.70;99.90;;;;;;4985658;28;20072;-91
2023/05/01 03:51:03;;;;;;;11.18;6.32;;;5.70;99.90;;;;;;4977629;28;20524;-91
2023/05/01 03:53:29;;;;;;;8.70;6.47;;;5.70;99.90;;;;;;4997799;28;20125;-91
2023/05/01 03:55:55;;;;;;;12.98;6.40;;;5.70;99.90;;;;;;4980723;28;20033;-91
2023/05/01 03:58:21;;;;;;;11.00;6.43;;;5.60;99.90;;;;;;4980130;28;20038;-91
2023/05/01 04:00:46;;;;;;;11.35;7.22;;;5.60;99.90;;;;;;5015812;28;20555;-92
2023/05/01 04:03:12;;;;;;;16.35;6.97;;;5.60;99.90;;;;;;4983595;28;20142;-91
2023/05/01 04:05:38;;;;;;;13.27;7.07;;;5.60;99.90;;;;;;4983239;28;20049;-91
2023/05/01 04:08:04;;;;;;;11.80;6.50;;;5.60;99.90;;;;;;4980422;28;20398;-91
2023/05/01 04:10:29;;;;;;;11.38;6.95;;;5.60;99.90;;;;;;4980330;28;20030;-91
2023/05/01 04:12:55;;;;;;;11.82;7.57;;;5.60;99.90;;;;;;4997779;28;20038;-90
2023/05/01 04:15:21;;;;;;;11.00;7.15;;;5.60;99.90;;;;;;4999170;28;20473;-90
2023/05/01 04:17:47;;;;;;;10.23;7.13;;;5.60;99.90;;;;;;5001622;28;20053;-91
2023/05/01 04:20:13;;;;;;;11.50;6.88;;;5.70;99.90;;;;;;4982842;28;20122;-91
2023/05/01 04:22:38;;;;;;;11.32;6.25;;;5.70;99.90;;;;;;4979727;28;20594;-91
2023/05/01 04:25:04;;;;;;;10.45;7.05;;;5.70;99.90;;;;;;4983764;28;20042;-90
2023/05/01 04:27:30;;;;;;;11.25;7.00;;;5.70;99.90;;;;;;4983883;28;20042;-91
2023/05/01 04:29:56;;;;;;;10.88;6.82;;;5.70;99.90;;;;;;4997536;28;20053;-91
2023/05/01 04:32:22;;;;;;;11.48;7.43;;;5.70;99.90;;;;;;4983172;28;20121;-90
2023/05/01 04:34:48;;;;;;;10.50;7.15;;;5.80;99.90;;;;;;4998220;28;20352;-90
2023/05/01 04:37:16;;;;;;;13.15;7.90;;;5.90;99.90;;;;;;5000260;28;20061;-91
2023/05/01 04:39:42;;;;;;;14.43;7.55;;;5.90;99.90;;;;;;4994172;28;20111;-91
2023/05/01 04:42:08;;;;;;;13.00;7.68;;;5.90;99.90;;;;;;4998572;28;20042;-90
2023/05/01 04:44:35;;;;;;;13.18;7.50;;;6.00;99.90;;;;;;4999374;28;20132;-91
2023/05/01 04:47:02;;;;;;;11.43;7.70;;;6.10;99.90;;;;;;4981241;28;20121;-92
2023/05/01 04:49:28;;;;;;;11.68;6.90;;;6.20;99.90;;;;;;4998698;28;20038;-90
2023/05/01 04:51:54;;;;;;;12.65;7.70;;;6.30;99.90;;;;;;4983093;28;20045;-91
2023/05/01 04:54:23;;;;;;;13.73;8.13;;;6.30;99.90;;;;;;4977707;28;20088;-90
2023/05/01 04:56:49;;;;;;;13.95;7.78;;;6.50;99.90;;;;;;4994517;28;20384;-90
2023/05/01 04:59:16;;;;;;;9.88;6.50;;;6.60;99.90;;;;;;4984254;28;20057;-91
2023/05/01 05:01:41;;;;;;;13.57;7.30;;;6.70;99.90;;;;;;4978042;28;20073;-90
2023/05/01 05:04:07;;;;;;;13.82;7.63;;;6.80;99.90;;;;;;4995278;28;20065;-91
2023/05/01 05:06:33;;;;;;;10.80;7.28;;;6.80;99.90;;;;;;4982421;28;20044;-90
2023/05/01 05:08:58;;;;;;;12.38;7.63;;;6.90;99.90;;;;;;4983872;28;20236;-91
2023/05/01 05:11:25;;;;;;;10.48;7.15;;;7.10;99.90;;;;;;4984165;28;20120;-91
2023/05/01 05:13:51;;;;;;;12.65;7.88;;;7.20;99.90;;;;;;4999901;28;20093;-90
2023/05/01 05:16:16;;;;;;;12.93;7.75;;;7.20;99.90;;;;;;4981349;28;20085;-90
2023/05/01 05:18:42;;;;;;;12.88;7.57;;;7.40;99.90;;;;;;4981998;28;20265;-90
2023/05/01 05:21:09;;;;;;;11.50;7.00;;;7.50;99.90;;;;;;4994544;28;20120;-90
2023/05/01 05:23:35;;;;;;;10.80;7.53;;;7.60;99.90;;;;;;4991890;28;20054;-91
2023/05/01 05:26:01;;;;;;;12.27;7.32;;;7.70;99.90;;;;;;4975301;28;20050;-90
2023/05/01 05:28:30;;;;;;;13.85;7.47;;;7.80;99.90;;;;;;4996609;28;20493;-90
2023/05/01 05:30:56;;;;;;;12.02;7.90;;;7.80;99.90;;;;;;4993829;28;20873;-90
2023/05/01 05:33:23;;;;;;;11.68;7.15;;;7.90;99.90;;;;;;4994997;28;20038;-91
2023/05/01 05:35:50;;;;;;;13.73;7.90;;;7.90;99.90;;;;;;4981237;28;20061;-90
2023/05/01 05:38:16;;;;;;;15.77;8.13;;;7.90;99.90;;;;;;4984128;28;20046;-90
2023/05/01 05:40:41;;;;;;;11.25;8.25;;;8.00;99.90;;;;;;4983114;28;20052;-90
2023/05/01 05:43:07;;;;;;;12.73;7.00;;;8.10;99.90;;;;;;4983287;28;20030;-90
2023/05/01 05:45:33;;;;;;;11.23;7.38;;;8.10;99.90;;;;;;4981735;28;20060;-90
2023/05/01 05:47:59;;;;;;;13.18;7.40;;;8.10;99.90;;;;;;4982050;28;20042;-90
2023/05/01 05:50:25;;;;;;;12.30;7.25;;;8.20;99.90;;;;;;4986671;28;20034;-91
2023/05/01 05:52:51;;;;;;;10.07;7.32;;;8.30;99.90;;;;;;4985417;28;20131;-91
2023/05/01 05:55:17;;;;;;;13.13;7.78;;;8.40;99.90;;;;;;4985424;28;20164;-91
2023/05/01 05:57:42;;;;;;;12.07;8.27;;;8.50;99.90;;;;;;4979451;28;20101;-91
2023/05/01 06:00:09;;;;;;;11.68;7.65;;;8.60;99.90;;;;;;5000628;28;20038;-91
2023/05/01 06:02:38;;;;;;;12.93;8.02;;;8.70;99.90;;;;;;5001691;28;20052;-90
2023/05/01 06:05:04;;;;;;;13.90;7.47;;;8.80;99.90;;;;;;5001347;28;20037;-89
2023/05/01 06:07:30;;;;;;;14.70;8.13;;;8.90;99.90;;;;;;4980802;28;20096;-91
2023/05/01 06:10:02;;;;;;;13.23;7.60;;;9.00;99.90;;;;;;4983290;28;20120;-90
2023/05/01 06:12:28;;;;;;;13.02;7.63;;;9.10;99.90;;;;;;4983553;28;20389;-90
2023/05/01 06:14:54;;;;;;;10.90;7.82;;;9.10;99.90;;;;;;4998507;28;20066;-91
2023/05/01 06:17:20;;;;;;;14.70;7.57;;;9.20;99.90;;;;;;5006887;28;20046;-90
2023/05/01 06:19:46;;;;;;;20.10;8.40;;;9.30;99.90;;;;;;4983740;28;20156;-91
2023/05/01 06:22:12;;;;;;;13.20;7.60;;;9.40;99.90;;;;;;5003289;28;20101;-90
2023/05/01 06:24:38;;;;;;;12.25;8.15;;;9.40;99.90;;;;;;4998836;28;20034;-90
2023/05/01 06:27:04;;;;;;;14.63;8.38;;;9.50;99.90;;;;;;4984961;28;20077;-91
2023/05/01 06:29:30;;;;;;;10.93;7.72;;;9.60;99.90;;;;;;4987894;28;20046;-90
2023/05/01 06:31:59;;;;;;;13.80;7.90;;;9.70;99.90;;;;;;4987047;28;20439;-90
2023/05/01 06:34:25;;;;;;;15.02;7.57;;;9.80;99.90;;;;;;5003130;28;20489;-90
2023/05/01 06:36:50;;;;;;;9.98;7.05;;;9.80;99.90;;;;;;5018679;28;20029;-91
2023/05/01 06:39:16;;;;;;;11.88;7.97;;;9.90;99.90;;;;;;5001962;28;20136;-90
2023/05/01 06:41:45;;;;;;;14.20;7.63;;;10.00;99.90;;;;;;4983706;28;20092;-90
2023/05/01 06:44:11;;;;;;;13.50;8.15;;;10.10;99.90;;;;;;4986099;28;20037;-91
2023/05/01 06:46:36;;;;;;;13.05;7.80;;;10.10;99.90;;;;;;4986815;28;20057;-91
2023/05/01 06:49:02;;;;;;;10.80;7.70;;;10.40;99.90;;;;;;4984280;28;20038;-90
2023/05/01 06:51:30;;;;;;;12.75;7.60;;;10.40;99.90;;;;;;4989545;28;20034;-90
2023/05/01 06:53:56;;;;;;;14.38;8.18;;;10.50;99.90;;;;;;4984976;28;20362;-90
2023/05/01 06:56:22;;;;;;;11.18;7.28;;;10.50;99.90;;;;;;4983989;28;20044;-91
2023/05/01 06:58:48;;;;;;;14.43;7.38;;;10.60;99.90;;;;;;4978688;28;20274;-91
2023/05/01 07:01:13;;;;;;;11.73;7.43;;;10.70;99.90;;;;;;5004173;28;20049;-90
2023/05/01 07:03:42;;;;;;;14.07;7.78;;;10.80;99.90;;;;;;4988531;28;20069;-91
2023/05/01 07:06:08;;;;;;;11.93;7.30;;;10.90;99.90;;;;;;5017241;28;20045;-92
2023/05/01 07:08:34;;;;;;;10.88;7.20;;;10.90;99.90;;;;;;4986818;28;20050;-90
2023/05/01 07:10:59;;;;;;;13.25;7.88;;;10.90;99.90;;;;;;5002118;28;20041;-90
2023/05/01 07:13:25;;;;;;;9.95;6.45;;;11.10;99.90;;;;;;4981387;28;20525;-90
2023/05/01 07:15:51;;;;;;;11.95;7.55;;;11.20;99.90;;;;;;5000415;28;20112;-91
2023/05/01 07:18:17;;;;;;;9.93;7.40;;;11.30;99.90;;;;;;4983872;28;20065;-90
2023/05/01 07:20:42;;;;;;;11.30;7.72;;;11.40;99.90;;;;;;4984319;28;20042;-90
2023/05/01 07:23:11;;;;;;;11.63;7.40;;;11.50;99.90;;;;;;5016438;28;20120;-91
2023/05/01 07:25:37;;;;;;;11.05;7.05;;;11.70;99.90;;;;;;4982082;28;20056;-90
2023/05/01 07:28:06;;;;;;;9.75;7.60;;;11.80;99.90;;;;;;5000949;28;20042;-91
2023/05/01 07:30:33;;;;;;;10.68;7.20;;;11.90;99.90;;;;;;4981296;28;20042;-90
2023/05/01 07:32:58;;;;;;;13.32;7.68;;;11.80;99.90;;;;;;4984987;28;20180;-90
2023/05/01 07:35:27;;;;;;;11.88;7.32;;;11.80;99.90;;;;;;4995915;28;20117;-91
2023/05/01 07:37:53;;;;;;;12.57;8.32;;;11.80;99.90;;;;;;4984098;28;20385;-90
2023/05/01 07:40:19;;;;;;;10.68;7.18;;;12.20;99.90;;;;;;4983380;28;20080;-91
2023/05/01 07:42:45;;;;;;;10.32;6.80;;;12.30;27.10;;;;;;4997660;28;20062;-90
2023/05/01 07:45:10;;;;;;;11.30;6.95;;;12.40;34.50;;;;;;4987691;28;20042;-90
2023/05/01 07:47:36;;;;;;;12.25;6.72;;;12.40;1.00;;;;;;4981404;28;20485;-90
2023/05/01 07:50:03;;;;;;;9.35;6.70;;;12.60;99.90;;;;;;5000604;28;20128;-90
2023/05/01 07:52:29;;;;;;;9.65;6.68;;;12.90;1.00;;;;;;4984330;28;20128;-91
2023/05/01 07:54:55;;;;;;;11.43;6.78;;;13.10;1.00;;;;;;4997139;28;20046;-91
2023/05/01 07:57:22;;;;;;;11.55;6.63;;;13.20;99.90;;;;;;4982259;28;20038;-90
2023/05/01 07:59:53;;;;;;;13.23;6.82;;;13.40;1.00;;;;;;4995076;28;20452;-90
2023/05/01 08:02:19;;;;;;;8.25;6.55;;;13.30;99.90;;;;;;5000953;28;20049;-91
2023/05/01 08:04:46;;;;;;;8.85;6.70;;;13.60;99.90;;;;;;4994517;28;20037;-90
2023/05/01 08:07:12;;;;;;;10.02;5.82;;;13.70;99.90;;;;;;4988141;28;20044;-90
2023/05/01 08:09:38;;;;;;;11.43;6.75;;;13.80;99.90;;;;;;4999597;28;20041;-90
2023/05/01 08:12:04;;;;;;;11.25;6.07;;;13.80;1.00;;;;;;4998662;28;20033;-90
2023/05/01 08:14:30;;;;;;;11.40;6.05;;;13.80;99.90;;;;;;4984441;28;20046;-90
2023/05/01 08:16:56;;;;;;;11.57;6.32;;;13.60;99.90;;;;;;4995356;28;20416;-90
2023/05/01 08:19:22;;;;;;;9.13;5.60;;;13.80;29.40;;;;;;4980698;28;20038;-90
2023/05/01 08:21:50;;;;;;;9.52;5.95;;;14.10;99.90;;;;;;4981490;28;20357;-91
2023/05/01 08:24:16;;;;;;;8.05;5.43;;;14.30;99.90;;;;;;4980478;28;20085;-91
2023/05/01 08:26:42;;;;;;;9.45;5.95;;;14.60;1.00;;;;;;4996094;28;20602;-90
2023/05/01 08:29:09;;;;;;;9.27;5.80;;;14.40;99.90;;;;;;4982264;28;20037;-90
2023/05/01 08:31:36;;;;;;;8.90;5.90;;;14.40;1.00;;;;;;4982698;28;20045;-91
2023/05/01 08:34:03;;;;;;;10.30;5.72;;;14.40;29.70;;;;;;4997724;28;20050;-91
2023/05/01 08:36:29;;;;;;;11.23;5.82;;;14.60;99.90;;;;;;4980453;28;20030;-90
2023/05/01 08:38:55;;;;;;;8.93;5.40;;;14.50;1.00;;;;;;4995030;28;20517;-91
2023/05/01 08:41:22;;;;;;;6.88;4.90;;;14.70;99.90;;;;;;4983282;28;20151;-91
2023/05/01 08:43:48;;;;;;;8.52;5.30;;;14.90;99.90;;;;;;4983323;28;20069;-92
2023/05/01 08:46:46;;;;;;;9.13;5.35;;;15.10;99.90;;;;;;4980646;28;20125;-91
2023/05/01 08:49:14;;;;;;;9.77;5.68;;;15.30;1.00;;;;;;4996176;28;20061;-90
2023/05/01 08:51:46;;;;;;;8.38;4.25;;;15.30;99.90;;;;;;4996598;28;20037;-91
2023/05/01 08:54:13;;;;;;;8.63;4.45;;;15.60;99.90;;;;;;4984346;28;20501;-90
2023/05/01 08:56:42;;;;;;;8.10;4.80;;;15.70;13.30;;;;;;4992572;28;20107;-90
2023/05/01 08:59:09;;;;;;;9.27;4.97;;;15.50;8.90;;;;;;4995255;28;20065;-91
2023/05/01 09:01:36;;;;;;;6.97;4.40;;;15.50;1.00;;;;;;4983751;28;20048;-91
2023/05/01 09:04:03;;;;;;;9.23;4.65;;;15.40;1.00;;;;;;4996254;28;20042;-92
2023/05/01 09:06:31;;;;;;;10.10;5.05;;;15.70;53.90;;;;;;4979752;28;20841;-91
2023/05/01 09:08:57;;;;;;;8.63;5.07;;;15.90;99.90;;;;;;4983163;28;20102;-90
2023/05/01 09:11:26;;;;;;;9.95;5.20;;;16.10;12.50;;;;;;5010665;28;20045;-91
2023/05/01 09:13:53;;;;;;;8.23;4.85;;;16.10;45.50;;;;;;4984914;28;20165;-90
2023/05/01 09:16:19;;;;;;;10.85;4.43;;;16.20;22.80;;;;;;4981259;28;20140;-91
2023/05/01 09:18:46;;;;;;;7.13;4.20;;;16.40;1.00;;;;;;4999444;28;20512;-92
2023/05/01 09:21:12;;;;;;;7.63;3.92;;;16.60;1.00;;;;;;4979490;28;20050;-90
2023/05/01 09:23:39;;;;;;;7.47;4.25;;;16.50;99.90;;;;;;4983305;28;20046;-91
2023/05/01 09:26:08;;;;;;;7.63;4.68;;;16.10;99.90;;;;;;4989631;28;20205;-91
2023/05/01 09:28:47;;;;;;;11.48;5.22;;;16.00;99.90;;;;;;4987564;28;20045;-88
2023/05/01 09:31:31;;;;;;;6.70;4.00;;;16.40;99.90;;;;;;5017988;28;20044;-91
2023/05/01 09:34:00;;;;;;;7.00;3.90;;;16.70;99.90;;;;;;4999679;28;20057;-92
2023/05/01 09:36:29;;;;;;;6.68;3.90;;;16.30;99.90;;;;;;5016887;28;20508;-88
2023/05/01 09:38:56;;;;;;;7.60;3.70;;;16.40;99.90;;;;;;4981834;28;20635;-92
2023/05/01 09:41:22;;;;;;;9.27;3.90;;;16.40;99.90;;;;;;4982307;28;20061;-92
2023/05/01 09:43:52;;;;;;;6.55;3.65;;;16.50;99.90;;;;;;4985610;28;20042;-91
2023/05/01 09:46:19;;;;;;;6.43;3.88;;;17.00;99.90;;;;;;4983208;28;20080;-91
2023/05/01 09:49:02;;;;;;;7.72;3.75;;;17.00;99.90;;;;;;4987888;28;20038;-92
2023/05/01 09:51:29;;;;;;;6.32;3.63;;;16.80;99.90;;;;;;4996883;28;20593;-91
2023/05/01 09:54:03;;;;;;;5.13;3.80;;;17.10;99.90;;;;;;4983654;28;20064;-91
2023/05/01 09:56:44;;;;;;;7.45;3.50;;;17.60;99.90;;;;;;4984511;28;20547;-92
2023/05/01 09:59:19;;;;;;;7.50;3.47;;;17.40;99.90;;;;;;5000009;28;20556;-91
2023/05/01 10:01:46;;;;;;;6.50;3.22;;;17.50;99.90;;;;;;4985210;28;20037;-92
2023/05/01 10:04:15;;;;;;;8.15;3.75;;;17.00;99.90;;;;;;4989211;28;20960;-91
2023/05/01 10:06:44;;;;;;;4.30;2.50;;;17.10;99.90;;;;;;4999001;28;20053;-91
2023/05/01 10:09:15;;;;;;;5.55;2.60;;;17.40;99.90;;;;;;4982732;28;20116;-91
2023/05/01 10:11:51;;;;;;;3.63;2.40;;;17.20;99.90;;;;;;4981765;28;20034;-90
2023/05/01 10:14:16;;;;;;;7.05;2.83;;;17.50;99.90;;;;;;4984975;28;20054;-90
2023/05/01 10:16:45;;;;;;;5.50;2.90;;;17.60;99.90;;;;;;5000624;28;20080;-91
2023/05/01 10:19:11;;;;;;;6.45;3.25;;;17.20;54.10;;;;;;4985516;28;20671;-91
2023/05/01 10:21:37;;;;;;;4.78;2.78;;;17.50;39.60;;;;;;5001483;28;20053;-91
2023/05/01 10:24:04;;;;;;;4.72;2.83;;;18.00;99.90;;;;;;5000731;28;20174;-90
2023/05/01 10:26:34;;;;;;;6.55;3.20;;;17.70;42.90;;;;;;5001693;28;20045;-90
2023/05/01 10:29:03;;;;;;;5.97;2.22;;;17.50;8.20;;;;;;4997778;28;20038;-92
2023/05/01 10:31:31;;;;;;;3.75;1.60;;;17.60;29.90;;;;;;4997898;28;20046;-91
2023/05/01 10:33:59;;;;;;;4.80;1.83;;;17.60;31.10;;;;;;4997347;28;20042;-92
2023/05/01 10:36:31;;;;;;;5.63;1.20;;;17.70;1.00;;;;;;4998384;28;20042;-90
2023/05/01 10:38:57;;;;;;;2.45;1.27;;;17.50;1.00;;;;;;4999266;28;20400;-91
2023/05/01 10:41:57;;;;;;;5.68;1.58;;;17.70;1.00;;;;;;4979867;28;20033;-90
2023/05/01 10:44:25;;;;;;;3.25;1.50;;;17.70;1.00;;;;;;5016053;28;20103;-90
2023/05/01 10:46:51;;;;;;;2.40;1.30;;;17.70;1.00;;;;;;4997881;28;20049;-90
2023/05/01 10:49:17;;;;;;;2.33;1.30;;;18.00;13.30;;;;;;4983230;28;20494;-90
2023/05/01 10:52:00;;;;;;;4.22;1.52;;;17.70;1.00;;;;;;4982513;28;20103;-90
2023/05/01 10:54:28;;;;;;;1.77;1.40;;;18.30;1.00;;;;;;4999622;28;20486;-90
2023/05/01 10:56:57;;;;;;;3.17;1.60;;;18.50;1.00;;;;;;4981113;28;20493;-90
2023/05/01 10:59:23;;;;;;;2.50;1.50;;;18.20;1.00;;;;;;4981111;28;20041;-91
2023/05/01 11:01:52;;;;;;;4.60;1.95;;;18.20;1.00;;;;;;4981462;28;20045;-91
2023/05/01 11:04:18;;;;;;;4.72;1.70;;;17.90;1.00;;;;;;4982597;28;20044;-88
2023/05/01 11:07:04;;;;;;;2.63;1.25;;;18.30;1.00;;;;;;4998394;28;20041;-90
2023/05/01 11:09:50;;;;;;;2.03;1.40;;;18.50;1.00;;;;;;4984356;28;20041;-90
2023/05/01 11:12:45;;;;;;;4.00;1.83;;;18.80;1.00;;;;;;4986138;28;20041;-90
2023/05/01 11:15:11;;;;;;;3.47;2.20;;;18.70;1.00;;;;;;4994408;28;20129;-89
2023/05/01 11:17:40;;;;;;;2.67;1.85;;;18.60;1.00;;;;;;4981900;28;20045;-90
2023/05/01 11:20:26;;;;;;;4.20;1.90;;;18.50;1.00;;;;;;5001367;28;20053;-91
2023/05/01 11:22:56;;;;;;;2.65;1.45;;;18.40;1.00;;;;;;4973047;28;20045;-91
2023/05/01 11:25:23;;;;;;;4.07;2.05;;;18.70;1.00;;;;;;4995834;28;20042;-90
2023/05/01 11:27:51;;;;;;;3.30;1.85;;;18.90;1.00;;;;;;4982875;28;20030;-90
2023/05/01 11:30:17;;;;;;;2.80;1.80;;;18.70;1.00;;;;;;4979412;28;20096;-90
2023/05/01 11:32:45;;;;;;;4.60;1.88;;;19.00;1.00;;;;;;4979176;28;20030;-89
2023/05/01 11:35:18;;;;;;;4.00;1.83;;;19.00;1.00;;;;;;4994769;28;20128;-89
2023/05/01 11:37:45;;;;;;;3.22;1.77;;;19.30;1.00;;;;;;4996791;28;20453;-90
2023/05/01 11:40:22;;;;;;;2.72;1.73;;;18.80;1.00;;;;;;4996100;28;20038;-89
2023/05/01 11:42:49;;;;;;;1.30;1.17;;;18.60;1.00;;;;;;5014416;28;20083;-90
2023/05/01 11:45:15;;;;;;;2.38;1.42;;;18.30;99.90;;;;;;4993682;28;20037;-90
2023/05/01 11:47:41;;;;;;;1.75;1.50;;;18.50;1.00;;;;;;4998280;28;20046;-90
2023/05/01 11:50:08;;;;;;;4.30;1.70;;;18.50;1.00;;;;;;4978446;28;20048;-88
2023/05/01 11:52:53;;;;;;;2.50;1.55;;;18.50;99.90;;;;;;4979153;28;20038;-90
2023/05/01 11:55:20;;;;;;;3.95;2.10;;;18.50;99.90;;;;;;4983487;28;20162;-90
2023/05/01 11:57:49;;;;;;;2.65;1.80;;;18.30;99.90;;;;;;4995416;28;20057;-89
2023/05/01 12:00:36;;;;;;;2.85;1.60;;;18.80;1.00;;;;;;4982191;28;20101;-89
2023/05/01 12:03:21;;;;;;;2.92;1.75;;;18.60;99.90;;;;;;4983506;28;20053;-89
2023/05/01 12:05:51;;;;;;;3.88;1.90;;;18.70;1.00;;;;;;4995445;28;20042;-89
2023/05/01 12:08:19;;;;;;;4.43;1.80;;;18.90;99.90;;;;;;4977217;28;20053;-89
2023/05/01 12:10:48;;;;;;;2.00;1.40;;;18.90;99.90;;;;;;4993589;28;20038;-89
2023/05/01 12:13:14;;;;;;;3.35;2.00;;;19.10;99.90;;;;;;4982775;28;20116;-88
2023/05/01 12:15:46;;;;;;;2.65;2.05;;;18.70;99.90;;;;;;4975199;28;20113;-88
2023/05/01 12:18:13;;;;;;;3.63;2.03;;;18.70;99.90;;;;;;4995855;28;20056;-89
2023/05/01 12:20:41;;;;;;;3.80;2.30;;;18.90;99.90;;;;;;4976962;28;20749;-90
2023/05/01 12:23:13;;;;;;;3.33;1.85;;;19.00;99.90;;;;;;5010824;28;20050;-87
2023/05/01 12:25:39;;;;;;;3.80;2.20;;;19.00;99.90;;;;;;5011793;28;20120;-88
2023/05/01 12:28:19;;;;;;;2.53;2.13;;;18.60;99.90;;;;;;4995972;28;20620;-89
2023/05/01 12:30:46;;;;;;;3.65;2.28;;;18.90;99.90;;;;;;4978971;28;20265;-88
2023/05/01 12:33:18;;;;;;;3.38;2.30;;;19.10;99.90;;;;;;4998508;28;20041;-89
2023/05/01 12:35:45;;;;;;;4.88;2.25;;;18.30;99.90;;;;;;4993499;28;20049;-89
2023/05/01 12:38:19;;;;;;;3.45;1.98;;;18.10;99.90;;;;;;4981309;28;20046;-90
2023/05/01 12:40:50;;;;;;;;;;;18.00;99.90;;;;;;4978856;28;20162;-88
2023/05/01 12:43:18;;;;;;;3.88;1.98;;;18.30;99.90;;;;;;4999626;28;20615;-89
2023/05/01 12:45:44;;;;;;;2.72;2.10;;;18.40;99.90;;;;;;4979554;28;20038;-89
2023/05/01 12:48:12;;;;;;;5.05;2.28;;;18.50;99.90;;;;;;4983867;28;20053;-89
2023/05/01 12:50:39;;;;;;;4.28;2.28;;;18.30;99.90;;;;;;4980098;28;20041;-89
2023/05/01 12:53:08;;;;;;;3.22;1.88;;;18.00;99.90;;;;;;4978928;28;20052;-90
2023/05/01 12:55:45;;;;;;;3.25;1.83;;;18.20;99.90;;;;;;4978354;28;20506;-90
2023/05/01 12:58:12;;;;;;;4.45;2.00;;;18.20;99.90;;;;;;4999888;28;20038;-89